createdAt,value
2019-01-12T00:01:17.836Z,3.22
2019-01-12T00:03:47.575Z,11.25
2019-01-12T00:06:17.695Z,3.05
2019-01-12T00:08:47.514Z,4.03
2019-01-12T00:11:17.475Z,5.65
2019-01-12T00:13:47.360Z,5.53
2019-01-12T00:16:16.926Z,8.83
2019-01-12T00:18:46.517Z,6.35
2019-01-12T00:21:16.422Z,10.10
2019-01-12T00:23:46.176Z,6.08
2019-01-12T00:26:15.969Z,7.50
2019-01-12T00:28:45.619Z,12.58
2019-01-12T00:31:15.699Z,8.10
2019-01-12T00:33:45.410Z,5.72
2019-01-12T00:36:15.261Z,7.47
2019-01-12T00:38:45.055Z,4.70
2019-01-12T00:41:14.786Z,6.80
2019-01-12T00:43:47.108Z,11.03
2019-01-12T00:46:36.172Z,4.70
2019-01-12T00:49:06.487Z,4.83
2019-01-12T00:51:36.267Z,2.55
2019-01-12T00:54:08.459Z,8.68
2019-01-12T00:56:38.379Z,2.25
2019-01-12T00:59:08.408Z,3.10
2019-01-12T01:01:38.323Z,3.60
2019-01-12T01:04:08.285Z,3.12
2019-01-12T01:06:38.283Z,11.60
2019-01-12T01:09:09.714Z,2.15
2019-01-12T01:11:39.563Z,3.15
2019-01-12T01:14:10.158Z,3.50
2019-01-12T01:16:39.965Z,7.85
2019-01-12T01:19:10.394Z,5.00
2019-01-12T01:21:40.267Z,4.62
2019-01-12T01:24:10.573Z,3.72
2019-01-12T01:26:42.645Z,3.58
2019-01-12T01:29:12.959Z,10.03
2019-01-12T01:31:42.841Z,3.72
2019-01-12T01:34:12.435Z,4.50
2019-01-12T01:36:42.051Z,8.03
2019-01-12T01:39:11.953Z,1.80
2019-01-12T01:41:41.640Z,4.58
2019-01-12T01:44:11.138Z,1.85
2019-01-12T01:46:40.562Z,2.95
2019-01-12T01:49:10.124Z,10.72
2019-01-12T01:51:39.629Z,5.12
2019-01-12T01:54:09.356Z,10.70
2019-01-12T01:56:38.895Z,7.53
2019-01-12T01:59:08.419Z,3.83
2019-01-12T02:01:38.030Z,2.98
2019-01-12T02:04:07.585Z,6.20
2019-01-12T02:06:37.197Z,6.78
2019-01-12T02:09:08.544Z,1.30
2019-01-12T02:11:38.065Z,5.33
2019-01-12T02:14:07.528Z,7.70
2019-01-12T02:16:37.090Z,2.80
2019-01-12T02:19:06.748Z,1.40
2019-01-12T02:21:36.252Z,4.08
2019-01-12T02:24:05.998Z,2.45
2019-01-12T02:26:35.506Z,2.08
2019-01-12T02:29:05.191Z,3.17
2019-01-12T02:31:34.790Z,1.98
2019-01-12T02:34:04.361Z,2.85
2019-01-12T02:36:33.942Z,4.25
2019-01-12T02:39:05.203Z,4.80
2019-01-12T02:41:34.846Z,1.27
2019-01-12T02:44:04.609Z,7.62
2019-01-12T02:46:34.130Z,1.20
2019-01-12T02:49:03.686Z,1.32
2019-01-12T02:51:33.253Z,1.35
2019-01-12T02:54:03.000Z,3.05
2019-01-12T02:56:32.605Z,1.95
2019-01-12T02:59:02.222Z,1.85
2019-01-12T03:01:31.762Z,6.37
2019-01-12T03:04:01.449Z,2.90
2019-01-12T03:06:31.016Z,7.37
2019-01-12T03:09:00.612Z,5.50
2019-01-12T03:11:30.129Z,1.60
2019-01-12T03:13:59.744Z,2.22
2019-01-12T03:16:29.395Z,4.53
2019-01-12T03:18:58.877Z,1.85
2019-01-12T03:21:28.547Z,5.08
2019-01-12T03:23:58.073Z,3.37
2019-01-12T03:26:27.678Z,6.60
2019-01-12T03:28:57.386Z,3.77
2019-01-12T03:31:26.928Z,1.50
2019-01-12T03:33:56.642Z,7.20
2019-01-12T03:36:26.699Z,1.70
2019-01-12T03:38:56.165Z,1.45
2019-01-12T03:41:25.685Z,1.37
2019-01-12T03:43:55.305Z,6.70
2019-01-12T03:46:24.947Z,2.70
2019-01-12T03:48:54.517Z,2.50
2019-01-12T03:51:24.089Z,3.80
2019-01-12T03:53:53.694Z,3.27
2019-01-12T03:56:23.222Z,4.75
2019-01-12T03:58:52.868Z,2.30
2019-01-12T04:01:22.440Z,1.27
2019-01-12T04:03:52.132Z,4.30
2019-01-12T04:06:21.723Z,4.78
2019-01-12T04:08:51.475Z,1.82
2019-01-12T04:11:20.974Z,2.70
2019-01-12T04:13:50.550Z,8.23
2019-01-12T04:16:20.045Z,3.30
2019-01-12T04:18:49.662Z,5.37
2019-01-12T04:21:19.547Z,3.35
2019-01-12T04:23:49.062Z,7.15
2019-01-12T04:26:18.563Z,2.42
2019-01-12T04:28:48.155Z,8.83
2019-01-12T04:31:17.686Z,2.67
2019-01-12T04:33:47.162Z,6.83
2019-01-12T04:36:16.703Z,4.47
2019-01-12T04:38:46.262Z,4.10
2019-01-12T04:41:15.778Z,4.45
2019-01-12T04:43:45.359Z,3.52
2019-01-12T04:46:15.026Z,1.77
2019-01-12T04:48:44.585Z,7.50
2019-01-12T04:51:14.250Z,2.83
2019-01-12T04:53:43.740Z,1.92
2019-01-12T04:56:13.443Z,2.67
2019-01-12T04:58:43.093Z,2.95
2019-01-12T05:01:12.703Z,7.20
2019-01-12T05:03:42.307Z,3.40
2019-01-12T05:06:11.868Z,2.40
2019-01-12T05:08:41.433Z,6.50
2019-01-12T05:11:11.000Z,5.72
2019-01-12T05:13:40.680Z,4.35
2019-01-12T05:16:10.190Z,7.78
2019-01-12T05:18:39.803Z,4.72
2019-01-12T05:21:09.345Z,2.80
2019-01-12T05:23:38.813Z,3.50
2019-01-12T05:26:08.441Z,5.45
2019-01-12T05:28:37.887Z,8.33
2019-01-12T05:31:07.405Z,6.20
2019-01-12T05:33:37.105Z,4.28
2019-01-12T05:36:06.597Z,4.30
2019-01-12T05:38:36.129Z,4.03
2019-01-12T05:41:05.972Z,5.65
2019-01-12T05:43:35.511Z,10.35
2019-01-12T05:46:05.047Z,9.98
2019-01-12T05:48:34.656Z,4.37
2019-01-12T05:51:04.261Z,4.12
2019-01-12T05:53:34.104Z,4.22
2019-01-12T05:56:03.618Z,4.03
2019-01-12T05:58:33.216Z,2.25
2019-01-12T06:01:02.721Z,6.40
2019-01-12T06:03:32.399Z,4.00
2019-01-12T06:06:02.476Z,9.15
2019-01-12T06:08:32.260Z,2.55
2019-01-12T06:11:01.766Z,4.83
2019-01-12T06:13:31.253Z,5.47
2019-01-12T06:16:01.212Z,5.00
2019-01-12T06:18:30.833Z,16.70
2019-01-12T06:21:00.604Z,7.83
2019-01-12T06:23:30.136Z,5.00
2019-01-12T06:26:03.884Z,3.58
2019-01-12T06:28:30.943Z,5.58
2019-01-12T06:31:00.578Z,7.70
2019-01-12T06:33:30.115Z,9.75
2019-01-12T06:35:59.742Z,10.75
2019-01-12T06:38:29.315Z,17.73
2019-01-12T06:40:58.879Z,6.42
2019-01-12T06:43:28.385Z,10.70
2019-01-12T06:45:58.116Z,9.53
2019-01-12T06:48:27.674Z,7.40
2019-01-12T06:50:57.196Z,13.03
2019-01-12T06:53:26.905Z,9.33
2019-01-12T06:55:56.574Z,8.25
2019-01-12T06:58:26.119Z,8.48
2019-01-12T07:00:55.757Z,7.40
2019-01-12T07:03:25.365Z,8.70
2019-01-12T07:05:54.923Z,8.95
2019-01-12T07:08:24.494Z,12.45
2019-01-12T07:10:53.982Z,8.88
2019-01-12T07:13:23.565Z,11.78
2019-01-12T07:15:53.496Z,11.22
2019-01-12T07:18:23.146Z,12.65
2019-01-12T07:20:52.754Z,15.72
2019-01-12T07:23:22.258Z,16.23
2019-01-12T07:25:51.866Z,10.43
2019-01-12T07:28:21.608Z,12.45
2019-01-12T07:30:51.283Z,15.85
2019-01-12T07:33:21.748Z,14.87
2019-01-12T07:35:51.259Z,15.03
2019-01-12T07:38:20.851Z,14.70
2019-01-12T07:40:52.683Z,16.17
2019-01-12T07:43:22.171Z,19.82
2019-01-12T07:45:51.864Z,16.80
2019-01-12T07:48:21.466Z,13.53
2019-01-12T07:50:54.015Z,15.80
2019-01-12T07:53:23.548Z,17.60
2019-01-12T07:55:53.125Z,17.25
2019-01-12T07:58:24.594Z,19.02
2019-01-12T08:00:54.159Z,16.23
2019-01-12T08:03:23.899Z,20.92
2019-01-12T08:05:53.488Z,16.65
2019-01-12T08:08:23.046Z,18.75
2019-01-12T08:10:52.642Z,15.60
2019-01-12T08:13:22.144Z,17.37
2019-01-12T08:15:51.779Z,16.17
2019-01-12T08:18:21.465Z,13.25
2019-01-12T08:20:50.999Z,16.62
2019-01-12T08:23:20.651Z,18.35
2019-01-12T08:25:50.269Z,18.90
2019-01-12T08:28:19.959Z,20.23
2019-01-12T08:30:49.846Z,23.32
2019-01-12T08:33:19.422Z,20.27
2019-01-12T08:35:48.979Z,18.80
2019-01-12T08:38:18.663Z,18.17
2019-01-12T08:40:48.272Z,19.40
2019-01-12T08:43:18.374Z,20.70
2019-01-12T08:45:47.874Z,16.27
2019-01-12T08:48:21.232Z,16.55
2019-01-12T08:50:51.077Z,17.42
2019-01-12T08:53:20.983Z,23.45
2019-01-12T08:55:50.499Z,15.65
2019-01-12T08:58:20.070Z,18.40
2019-01-12T09:00:49.701Z,20.68
2019-01-12T09:03:19.426Z,19.82
2019-01-12T09:05:49.037Z,23.67
2019-01-12T09:08:18.762Z,23.50
2019-01-12T09:10:48.320Z,26.48
2019-01-12T09:13:18.024Z,31.12
2019-01-12T09:15:47.680Z,18.85
2019-01-12T09:18:17.499Z,19.52
2019-01-12T09:20:47.071Z,26.55
2019-01-12T09:23:16.706Z,21.45
2019-01-12T09:25:46.216Z,26.12
2019-01-12T09:28:16.005Z,22.17
2019-01-12T09:30:48.642Z,25.60
2019-01-12T09:33:17.201Z,20.35
2019-01-12T09:35:46.831Z,21.15
2019-01-12T09:38:16.377Z,24.00
2019-01-12T09:40:46.162Z,23.00
2019-01-12T09:43:15.733Z,23.05
2019-01-12T09:45:45.304Z,27.58
2019-01-12T09:48:14.853Z,32.28
2019-01-12T09:50:44.375Z,27.27
2019-01-12T09:53:13.966Z,25.68
2019-01-12T09:55:43.578Z,23.27
2019-01-12T09:58:13.178Z,27.80
2019-01-12T10:00:42.913Z,25.97
2019-01-12T10:03:12.643Z,33.48
2019-01-12T10:05:42.196Z,30.25
2019-01-12T10:08:13.224Z,29.37
2019-01-12T10:10:42.809Z,29.60
2019-01-12T10:13:12.395Z,27.45
2019-01-12T10:15:41.974Z,32.65
2019-01-12T10:18:11.583Z,34.67
2019-01-12T10:20:41.150Z,37.78
2019-01-12T10:23:10.999Z,33.83
2019-01-12T10:25:40.928Z,30.55
2019-01-12T10:28:10.436Z,33.70
2019-01-12T10:30:40.545Z,31.90
2019-01-12T10:33:10.523Z,39.05
2019-01-12T10:35:40.644Z,30.88
2019-01-12T10:38:10.689Z,46.02
2019-01-12T10:40:40.234Z,37.70
2019-01-12T10:43:09.985Z,35.00
2019-01-12T10:45:39.565Z,34.10
2019-01-12T10:48:09.320Z,40.10
2019-01-12T10:50:40.015Z,35.08
2019-01-12T10:53:10.540Z,44.70
2019-01-12T10:55:40.120Z,42.15
2019-01-12T10:58:13.153Z,46.73
2019-01-12T11:00:42.882Z,47.53
2019-01-12T11:03:12.528Z,52.62
2019-01-12T11:05:42.286Z,44.00
2019-01-12T11:08:12.017Z,47.53
2019-01-12T11:10:41.720Z,40.20
2019-01-12T11:13:11.253Z,39.50
2019-01-12T11:15:40.779Z,45.03
2019-01-12T11:18:10.586Z,46.75
2019-01-12T11:20:40.096Z,44.67
2019-01-12T11:23:10.265Z,41.10
2019-01-12T11:25:43.102Z,45.00
2019-01-12T11:28:11.102Z,39.63
2019-01-12T11:30:40.720Z,49.27
2019-01-12T11:33:10.386Z,44.65
2019-01-12T11:35:40.305Z,37.13
2019-01-12T11:38:09.952Z,45.70
2019-01-12T11:40:39.637Z,46.70
2019-01-12T11:43:09.339Z,35.65
2019-01-12T11:45:39.083Z,37.73
2019-01-12T11:48:08.759Z,34.73
2019-01-12T11:50:39.571Z,36.10
2019-01-12T11:53:09.223Z,36.88
2019-01-12T11:55:38.898Z,40.60
2019-01-12T11:58:09.003Z,39.75
2019-01-12T12:00:38.640Z,31.87
2019-01-12T12:03:08.522Z,32.55
2019-01-12T12:05:41.231Z,32.17
2019-01-12T12:08:11.093Z,26.60
2019-01-12T12:10:40.935Z,22.93
2019-01-12T12:13:10.688Z,31.23
2019-01-12T12:15:40.592Z,31.00
2019-01-12T12:18:10.033Z,30.52
2019-01-12T12:20:39.578Z,25.05
2019-01-12T12:23:09.303Z,31.62
2019-01-12T12:25:39.117Z,25.20
2019-01-12T12:28:08.606Z,22.52
2019-01-12T12:30:38.343Z,23.45
2019-01-12T12:33:08.073Z,23.02
2019-01-12T12:35:38.069Z,21.68
2019-01-12T12:38:07.575Z,19.35
2019-01-12T12:40:37.282Z,20.60
2019-01-12T12:43:06.807Z,23.18
2019-01-12T12:45:37.312Z,22.40
2019-01-12T12:48:07.050Z,18.27
2019-01-12T12:50:36.618Z,21.80
2019-01-12T12:53:06.205Z,19.32
2019-01-12T12:55:35.770Z,17.10
2019-01-12T12:58:05.573Z,17.17
2019-01-12T13:00:35.722Z,17.20
2019-01-12T13:03:05.587Z,16.23
2019-01-12T13:05:35.231Z,20.95
2019-01-12T13:08:05.339Z,17.77
2019-01-12T13:10:35.170Z,15.15
2019-01-12T13:13:05.217Z,17.23
2019-01-12T13:15:34.836Z,12.23
2019-01-12T13:18:04.899Z,17.02
2019-01-12T13:20:34.846Z,16.75
2019-01-12T13:23:04.764Z,16.45
2019-01-12T13:25:34.420Z,16.42
2019-01-12T13:28:04.454Z,13.58
2019-01-12T13:30:34.224Z,12.82
2019-01-12T13:33:03.972Z,14.85
2019-01-12T13:35:33.572Z,11.48
2019-01-12T13:38:03.277Z,15.23
2019-01-12T13:40:32.952Z,14.55
2019-01-12T13:43:02.994Z,10.68
2019-01-12T13:45:32.658Z,12.45
2019-01-12T13:48:02.441Z,15.20
2019-01-12T13:50:32.039Z,12.82
2019-01-12T13:53:01.555Z,10.68
2019-01-12T13:55:31.314Z,12.25
2019-01-12T13:58:00.837Z,11.53
2019-01-12T14:00:32.762Z,9.78
2019-01-12T14:03:03.833Z,9.95
2019-01-12T14:05:33.779Z,8.43
2019-01-12T14:08:03.351Z,11.73
2019-01-12T14:10:32.978Z,7.40
2019-01-12T14:13:02.846Z,7.97
2019-01-12T14:15:32.548Z,6.65
2019-01-12T14:18:02.349Z,7.72
2019-01-12T14:20:34.397Z,7.95
2019-01-12T14:23:05.140Z,9.00
2019-01-12T14:25:34.805Z,8.00
2019-01-12T14:28:04.714Z,7.37
2019-01-12T14:30:34.525Z,6.12
2019-01-12T14:33:04.189Z,9.95
2019-01-12T14:35:33.794Z,7.70
2019-01-12T14:38:03.631Z,7.78
2019-01-12T14:40:33.135Z,9.95
2019-01-12T14:43:02.699Z,6.37
2019-01-12T14:45:33.201Z,4.55
2019-01-12T14:48:03.163Z,10.70
2019-01-12T14:50:32.816Z,4.70
2019-01-12T14:53:02.375Z,14.00
2019-01-12T14:55:31.948Z,5.42
2019-01-12T14:58:02.969Z,6.45
2019-01-12T15:00:32.817Z,5.35
2019-01-12T15:03:02.554Z,5.53
2019-01-12T15:05:33.544Z,15.95
2019-01-12T15:08:03.116Z,8.30
2019-01-12T15:10:33.664Z,10.60
2019-01-12T15:13:03.319Z,16.60
2019-01-12T15:15:32.842Z,14.40
2019-01-12T15:18:02.513Z,6.60
2019-01-12T15:20:32.559Z,8.23
2019-01-12T15:23:03.262Z,6.90
2019-01-12T15:25:32.791Z,4.65
2019-01-12T15:28:08.774Z,3.85
2019-01-12T15:30:33.793Z,4.17
2019-01-12T15:33:08.288Z,6.70
2019-01-12T15:35:39.219Z,2.95
2019-01-12T15:38:10.553Z,2.77
2019-01-12T15:40:40.103Z,9.78
2019-01-12T15:43:09.695Z,4.53
2019-01-12T15:45:39.591Z,3.67
2019-01-12T15:48:09.209Z,6.10
2019-01-12T15:50:39.085Z,2.50
2019-01-12T15:53:08.595Z,1.92
2019-01-12T15:55:38.350Z,3.55
2019-01-12T15:58:07.895Z,4.78
2019-01-12T16:00:37.684Z,3.45
2019-01-12T16:03:07.224Z,6.50
2019-01-12T16:05:36.914Z,7.37
2019-01-12T16:08:06.501Z,6.05
2019-01-12T16:10:36.324Z,1.62
2019-01-12T16:13:05.776Z,5.08
2019-01-12T16:15:35.741Z,2.65
2019-01-12T16:18:05.290Z,6.25
2019-01-12T16:20:42.544Z,4.60
2019-01-12T16:23:13.982Z,5.33
2019-01-12T16:25:44.097Z,4.90
2019-01-12T16:28:13.870Z,8.08
2019-01-12T16:30:47.801Z,15.18
2019-01-12T16:33:17.453Z,9.28
2019-01-12T16:35:47.181Z,8.43
2019-01-12T16:38:16.795Z,7.87
2019-01-12T16:40:46.571Z,10.00
2019-01-12T16:43:16.674Z,10.00
2019-01-12T16:45:48.239Z,7.47
2019-01-12T16:48:17.789Z,7.03
2019-01-12T16:50:47.599Z,8.03
2019-01-12T16:53:17.235Z,8.18
2019-01-12T16:55:46.925Z,8.30
2019-01-12T16:58:16.622Z,6.40
2019-01-12T17:00:46.369Z,11.55
2019-01-12T17:03:18.396Z,7.60
2019-01-12T17:05:48.196Z,8.03
2019-01-12T17:08:17.933Z,9.48
2019-01-12T17:10:48.000Z,6.15
2019-01-12T17:13:20.763Z,6.90
2019-01-12T17:15:53.818Z,4.87
2019-01-12T17:18:23.420Z,11.28
2019-01-12T17:20:53.320Z,9.08
2019-01-12T17:23:22.853Z,8.98
2019-01-12T17:25:52.365Z,10.43
2019-01-12T17:28:24.788Z,8.05
2019-01-12T17:30:54.719Z,13.38
2019-01-12T17:33:26.358Z,8.43
2019-01-12T17:35:56.158Z,6.87
2019-01-12T17:38:25.924Z,5.92
2019-01-12T17:40:55.703Z,9.30
2019-01-12T17:43:26.563Z,7.87
2019-01-12T17:45:56.204Z,10.60
2019-01-12T17:48:26.132Z,9.73
2019-01-12T17:50:55.734Z,10.65
2019-01-12T17:53:25.298Z,7.40
2019-01-12T17:55:54.966Z,6.00
2019-01-12T17:58:24.543Z,6.60
2019-01-12T18:00:55.022Z,8.23
2019-01-12T18:03:24.834Z,7.35
2019-01-12T18:05:54.651Z,15.53
2019-01-12T18:08:24.377Z,9.23
2019-01-12T18:10:54.237Z,7.35
2019-01-12T18:13:23.998Z,7.47
2019-01-12T18:15:53.725Z,12.88
2019-01-12T18:18:23.297Z,8.73
2019-01-12T18:20:53.122Z,11.83
2019-01-12T18:23:23.148Z,14.13
2019-01-12T18:25:52.942Z,6.25
2019-01-12T18:28:22.953Z,7.50
2019-01-12T18:30:53.064Z,5.83
2019-01-12T18:33:22.946Z,7.47
2019-01-12T18:35:53.035Z,8.28
2019-01-12T18:38:23.204Z,10.58
2019-01-12T18:40:53.343Z,10.68
2019-01-12T18:43:23.659Z,17.20
2019-01-12T18:45:53.918Z,4.05
2019-01-12T18:48:23.766Z,13.18
2019-01-12T18:50:53.556Z,11.33
2019-01-12T18:53:23.328Z,16.95
2019-01-12T18:55:53.019Z,9.20
2019-01-12T19:01:11.560Z,6.17
2019-01-12T19:03:41.459Z,8.30
2019-01-12T19:06:11.054Z,3.87
2019-01-12T19:08:40.595Z,9.65
2019-01-12T19:11:10.265Z,4.15
2019-01-12T19:13:40.015Z,6.37
2019-01-12T19:16:09.967Z,8.00
2019-01-12T19:18:39.735Z,10.65
2019-01-12T19:21:09.421Z,7.00
2019-01-12T19:23:41.062Z,22.30
2019-01-12T19:26:10.732Z,7.92
2019-01-12T19:28:40.357Z,8.95
2019-01-12T19:31:10.180Z,6.83
2019-01-12T19:33:40.187Z,7.12
2019-01-12T19:36:09.973Z,7.03
2019-01-12T19:38:39.775Z,6.92
2019-01-12T19:41:09.370Z,16.57
2019-01-12T19:43:39.010Z,10.53
2019-01-12T19:46:09.159Z,8.38
2019-01-12T19:48:38.823Z,26.85
2019-01-12T19:51:08.427Z,12.15
2019-01-12T19:53:38.086Z,13.72
2019-01-12T19:56:07.778Z,17.90
2019-01-12T19:58:37.548Z,10.65
2019-01-12T20:01:07.244Z,12.68
2019-01-12T20:03:37.032Z,12.78
2019-01-12T20:06:06.644Z,11.57
2019-01-12T20:08:36.350Z,9.18
2019-01-12T20:11:05.967Z,9.55
2019-01-12T20:13:35.735Z,4.90
2019-01-12T20:16:06.061Z,3.45
2019-01-12T20:18:35.666Z,3.85
2019-01-12T20:21:05.311Z,3.08
2019-01-12T20:23:35.009Z,4.53
2019-01-12T20:26:04.869Z,2.65
2019-01-12T20:28:34.785Z,4.12
2019-01-12T20:31:51.210Z,8.23
2019-01-12T20:34:37.770Z,9.75
2019-01-12T20:38:02.257Z,4.70
2019-01-12T20:40:58.387Z,7.58
2019-01-12T20:44:14.127Z,6.83
2019-01-12T20:47:17.166Z,7.42
2019-01-12T20:49:54.153Z,14.65
2019-01-12T20:52:55.448Z,11.97
2019-01-12T20:56:16.051Z,16.23
2019-01-12T20:59:33.350Z,7.83
2019-01-12T21:02:31.662Z,7.37
2019-01-12T21:05:26.169Z,14.63
2019-01-12T21:08:17.732Z,11.08
2019-01-12T21:11:29.086Z,11.63
2019-01-12T21:14:24.055Z,18.05
2019-01-12T21:17:13.742Z,14.10
2019-01-12T21:19:48.136Z,8.63
2019-01-12T21:22:15.012Z,11.60
2019-01-12T21:24:44.812Z,16.65
2019-01-12T21:27:14.418Z,6.05
2019-01-12T21:29:44.171Z,11.48
2019-01-12T21:32:14.098Z,20.20
2019-01-12T21:34:43.723Z,3.52
2019-01-12T21:37:13.201Z,11.12
2019-01-12T21:39:42.803Z,15.53
2019-01-12T21:42:12.533Z,9.20
2019-01-12T21:44:42.107Z,11.85
2019-01-12T21:47:11.569Z,10.80
2019-01-12T21:49:48.263Z,11.53
2019-01-12T21:52:18.485Z,4.62
2019-01-12T21:54:48.400Z,8.90
2019-01-12T21:57:18.388Z,8.10
2019-01-12T21:59:48.202Z,9.98
2019-01-12T22:02:17.812Z,8.95
2019-01-12T22:04:47.420Z,17.57
2019-01-12T22:07:17.453Z,6.45
2019-01-12T22:09:46.982Z,7.40
2019-01-12T22:12:16.664Z,14.45
2019-01-12T22:14:46.326Z,9.08
2019-01-12T22:17:15.994Z,15.80
2019-01-12T22:19:46.485Z,10.78
2019-01-12T22:22:16.221Z,12.58
2019-01-12T22:24:45.852Z,12.73
2019-01-12T22:27:15.352Z,15.08
2019-01-12T22:29:49.757Z,6.25
2019-01-12T22:32:16.335Z,9.35
2019-01-12T22:34:46.027Z,6.17
2019-01-12T22:37:15.724Z,10.50
2019-01-12T22:39:45.284Z,7.37
2019-01-12T22:42:14.959Z,11.60
2019-01-12T22:44:44.536Z,7.97
2019-01-12T22:47:14.233Z,4.72
2019-01-12T22:49:43.918Z,13.35
2019-01-12T22:52:13.455Z,8.40
2019-01-12T22:54:43.068Z,10.72
2019-01-12T22:57:12.799Z,7.17
2019-01-12T22:59:42.345Z,9.15
2019-01-12T23:02:11.936Z,14.60
2019-01-12T23:04:41.413Z,4.92
2019-01-12T23:07:11.846Z,7.03
2019-01-12T23:09:41.372Z,19.10
2019-01-12T23:12:13.553Z,12.73
2019-01-12T23:14:43.367Z,11.12
2019-01-12T23:17:12.891Z,15.10
2019-01-12T23:19:42.478Z,12.20
2019-01-12T23:22:12.105Z,7.50
2019-01-12T23:24:41.610Z,11.12
2019-01-12T23:27:11.385Z,8.03
2019-01-12T23:29:40.950Z,9.00
2019-01-12T23:32:10.823Z,12.53
2019-01-12T23:34:40.432Z,9.33
2019-01-12T23:37:10.034Z,14.65
2019-01-12T23:39:42.578Z,8.25
2019-01-12T23:42:25.646Z,21.37
2019-01-12T23:44:55.977Z,16.07
2019-01-12T23:47:25.514Z,12.28
2019-01-12T23:49:55.142Z,14.07
2019-01-12T23:52:24.813Z,11.12
2019-01-12T23:54:54.406Z,9.90
2019-01-12T23:57:24.325Z,13.08
2019-01-12T23:59:53.833Z,8.98
